Météo Nord-Pas-de-Calais   La météo au plus près de chez vous

Station météorologique

Observations météo à Plovan (29214)

29214001 10 m Dernier relevé à 22:30
16.3°C
Humidité 81 % Vent 11.5 km/h

Journée consultée

Mardi 1 Septembre 2026

Synthèse de la journée

Périodes de référence en UTC

Température maximale

21.3°C

à 14:42

06h 06h

Température minimale

11.2°C

à 07:18

18h 18h

Rafale maximale

19 km/h

à 13:48

00h 00h

Précipitations

0.2 mm

Cumul quotidien

06h 06h

Ensoleillement

9h 17 mins

Durée quotidienne

00h 00h

Graphiques de la journée

Heure locale Réduire

Données détaillées

Relevés météo

Pas de 6 minutes Afficher les relevés infra-horaires
Relevés météo détaillés à Plovan pour le Mardi 1 Septembre 2026
Heure Température °C Point de rosée °C Humidité % Vent moyen (raf.), km/h Précipitations mm Ensoleillement min Rayonnement global W/m²
22:30 16.3 °C 14 °C 86 % 5 km/h (6 km/h) 0 mm0 mm 0 min 0 W/m²
22:24 16.5 °C 14 °C 85 % 5 km/h (6 km/h) 0 mm0 mm 0 min 0 W/m²
22:18 16.7 °C 14 °C 84 % 5 km/h (9 km/h) 0 mm0 mm 0 min 0 W/m²
22:12 17.1 °C 13.8 °C 81 % 5 km/h (9 km/h) 0 mm0 mm 0 min 0 W/m²
22:06 17.4 °C 13.9 °C 80 % 7 km/h (12 km/h) 0 mm0 mm 0 min 0 W/m²
22:00 17.7 °C 14.4 °C 81 % 10 km/h (12 km/h) 0 mm0 mm 0 min 0 W/m²
21:54 17.8 °C 14.5 °C 81 % 11 km/h (14 km/h) 0 mm0 mm 0 min 0 W/m²
21:48 17.9 °C 14.4 °C 80 % 13 km/h (15 km/h) 0 mm0 mm 0 min 0 W/m²
21:42 17.9 °C 14.6 °C 81 % 13 km/h (16 km/h) 0 mm0 mm 0 min 0 W/m²
21:36 17.9 °C 14.6 °C 81 % 13 km/h (16 km/h) 0 mm0 mm 0 min 0 W/m²
21:30 17.9 °C 14.6 °C 81 % 12 km/h (15 km/h) 0 mm0 mm 0 min 0 W/m²
21:24 17.9 °C 14.4 °C 80 % 11 km/h (14 km/h) 0 mm0 mm 0 min 0 W/m²
21:18 18 °C 14.5 °C 80 % 12 km/h (14 km/h) 0 mm0 mm 0 min 0 W/m²
21:12 18 °C 14.5 °C 80 % 12 km/h (14 km/h) 0 mm0 mm 0 min 0 W/m²
21:06 18 °C 14.5 °C 80 % 11 km/h (14 km/h) 0 mm0 mm 0 min 0 W/m²
21:00 18.1 °C 14.4 °C 79 % 12 km/h (14 km/h) 0 mm0 mm 0 min 0 W/m²
20:54 18.2 °C 14.5 °C 79 % 12 km/h (15 km/h) 0 mm0 mm 0 min 0 W/m²
20:48 18.2 °C 14.1 °C 77 % 12 km/h (15 km/h) 0 mm0 mm 0 min 0 W/m²
20:42 18.2 °C 14.1 °C 77 % 12 km/h (14 km/h) 0 mm0 mm 0 min 3.5 W/m²
20:36 18.3 °C 13.8 °C 75 % 12 km/h (15 km/h) 0 mm0 mm 1 min 7.4 W/m²
20:30 18.4 °C 14.1 °C 76 % 13 km/h (15 km/h) 0 mm0 mm 0 min 10.3 W/m²
20:24 18.5 °C 14.4 °C 77 % 12 km/h (14 km/h) 0 mm0 mm 0 min 12.6 W/m²
20:18 18.5 °C 14.2 °C 76 % 12 km/h (14 km/h) 0 mm0 mm 0 min 12.7 W/m²
20:12 18.5 °C 14.2 °C 76 % 12 km/h (14 km/h) 0 mm0 mm 0 min 12 W/m²
20:06 18.6 °C 14.3 °C 76 % 12 km/h (14 km/h) 0 mm0 mm 0 min 11.9 W/m²
20:00 18.7 °C 14.6 °C 77 % 11 km/h (14 km/h) 0 mm0 mm 0 min 16.5 W/m²
19:54 18.8 °C 14.3 °C 75 % 10 km/h (13 km/h) 0 mm0 mm 0 min 27.2 W/m²
19:48 18.9 °C 14.4 °C 75 % 9 km/h (12 km/h) 0 mm0 mm 0 min 34.2 W/m²
19:42 19 °C 14.9 °C 77 % 10 km/h (14 km/h) 0 mm0 mm 0 min 38.9 W/m²
19:36 19 °C 14.3 °C 74 % 12 km/h (15 km/h) 0 mm0 mm 0 min 40.5 W/m²
19:30 19.2 °C 14.7 °C 75 % 12 km/h (15 km/h) 0 mm0 mm 3 min 51.1 W/m²
19:24 19.2 °C 14.7 °C 75 % 12 km/h (14 km/h) 0 mm0 mm 0 min 47.9 W/m²
19:18 19.2 °C 14.5 °C 74 % 13 km/h (17 km/h) 0 mm0 mm 0 min 50.4 W/m²
19:12 19.5 °C 14.5 °C 73 % 14 km/h (17 km/h) 0 mm0 mm 5 min 64.8 W/m²
19:06 19.8 °C 14.8 °C 73 % 14 km/h (17 km/h) 0 mm0 mm 6 min 83.5 W/m²
19:00 19.6 °C 14.8 °C 74 % 14 km/h (17 km/h) 0 mm0 mm 3 min 70.9 W/m²
18:54 19.6 °C 14.4 °C 72 % 14 km/h (17 km/h) 0 mm0 mm 4 min 80.6 W/m²
18:48 19.7 °C 14.3 °C 71 % 14 km/h (18 km/h) 0 mm0 mm 6 min 94.6 W/m²
18:42 20 °C 14.6 °C 71 % 15 km/h (18 km/h) 0 mm0 mm 6 min 110.1 W/m²
18:36 20.1 °C 14.9 °C 72 % 15 km/h (18 km/h) 0 mm0 mm 6 min 135.7 W/m²
18:30 19.6 °C 14.6 °C 73 % 15 km/h (19 km/h) 0 mm0 mm 4 min 112.3 W/m²
18:24 19.3 °C 14.1 °C 72 % 14 km/h (19 km/h) 0 mm0 mm 0 min 73.1 W/m²
18:18 19.5 °C 14.5 °C 73 % 15 km/h (18 km/h) 0 mm0 mm 0 min 75.3 W/m²
18:12 19.5 °C 14.3 °C 72 % 15 km/h (19 km/h) 0 mm0 mm 0 min 82.8 W/m²
18:06 19.7 °C 14.5 °C 72 % 14 km/h (17 km/h) 0 mm0 mm 4 min 109.9 W/m²
18:00 19.6 °C 14.2 °C 71 % 14 km/h (17 km/h) 0 mm0 mm 0 min 89.1 W/m²
17:54 19.8 °C 14.4 °C 71 % 13 km/h (17 km/h) 0 mm0 mm 0 min 87.1 W/m²
17:48 20.4 °C 14.5 °C 69 % 13 km/h (17 km/h) 0 mm0 mm 5 min 155.7 W/m²
17:42 21.1 °C 14.7 °C 67 % 13 km/h (17 km/h) 0 mm0 mm 6 min 227.4 W/m²
17:36 20.1 °C 14.5 °C 70 % 13 km/h (16 km/h) 0 mm0 mm 6 min 183.5 W/m²
17:30 19.7 °C 14.1 °C 70 % 13 km/h (17 km/h) 0 mm0 mm 1 min 115.9 W/m²
17:24 19.8 °C 13.9 °C 69 % 13 km/h (17 km/h) 0 mm0 mm 0 min 110 W/m²
17:18 20.1 °C 14 °C 68 % 14 km/h (17 km/h) 0 mm0 mm 2 min 128.2 W/m²
17:12 20.8 °C 14.2 °C 66 % 13 km/h (17 km/h) 0 mm0 mm 6 min 211.2 W/m²
17:06 20.5 °C 14.4 °C 68 % 13 km/h (16 km/h) 0 mm0 mm 6 min 230.6 W/m²
17:00 20.3 °C 14.2 °C 68 % 13 km/h (17 km/h) 0 mm0 mm 6 min 185.4 W/m²
16:54 20.4 °C 14.1 °C 67 % 13 km/h (17 km/h) 0 mm0 mm 3 min 160.7 W/m²
16:48 20.8 °C 13.7 °C 64 % 13 km/h (17 km/h) 0 mm0 mm 6 min 232.4 W/m²
16:42 20.8 °C 14 °C 65 % 13 km/h (17 km/h) 0 mm0 mm 6 min 239.7 W/m²
16:36 20.5 °C 13.2 °C 63 % 14 km/h (18 km/h) 0 mm0 mm 6 min 223.5 W/m²
16:30 20.5 °C 13.7 °C 65 % 14 km/h (18 km/h) 0 mm0 mm 6 min 243 W/m²
16:24 20.6 °C 13.8 °C 65 % 13 km/h (16 km/h) 0 mm0 mm 6 min 243.3 W/m²
16:18 20.8 °C 14.2 °C 66 % 13 km/h (18 km/h) 0 mm0 mm 6 min 255.3 W/m²
16:12 20.7 °C 13.6 °C 64 % 14 km/h (18 km/h) 0 mm0 mm 6 min 270.6 W/m²
16:06 20.5 °C 14.4 °C 68 % 14 km/h (18 km/h) 0 mm0 mm 3 min 212.4 W/m²
16:00 20 °C 13.9 °C 68 % 14 km/h (19 km/h) 0 mm0 mm 0 min 146.7 W/m²
15:54 20.4 °C 13.6 °C 65 % 14 km/h (18 km/h) 0 mm0 mm 2 min 165.3 W/m²
15:48 20.6 °C 13.3 °C 63 % 14 km/h (17 km/h) 0 mm0 mm 6 min 273.6 W/m²
15:42 20.9 °C 14.1 °C 65 % 15 km/h (19 km/h) 0 mm0 mm 6 min 316 W/m²
15:36 20.2 °C 13.9 °C 67 % 16 km/h (19 km/h) 0 mm0 mm 3 min 212.7 W/m²
15:30 19.9 °C 13.6 °C 67 % 15 km/h (19 km/h) 0 mm0 mm 1 min 164.7 W/m²
15:24 20.5 °C 13.7 °C 65 % 16 km/h (19 km/h) 0 mm0 mm 6 min 211.5 W/m²
15:18 20.4 °C 13.6 °C 65 % 16 km/h (19 km/h) 0 mm0 mm 4 min 229.4 W/m²
15:12 20.5 °C 13.9 °C 66 % 15 km/h (19 km/h) 0 mm0 mm 5 min 242.1 W/m²
15:06 20.6 °C 13.8 °C 65 % 15 km/h (19 km/h) 0 mm0 mm 4 min 225.5 W/m²
15:00 21 °C 14.2 °C 65 % 16 km/h (19 km/h) 0 mm0 mm 6 min 285.9 W/m²
14:54 20.9 °C 14.5 °C 67 % 16 km/h (19 km/h) 0 mm0 mm 6 min 260.8 W/m²
14:48 21 °C 14.6 °C 67 % 15 km/h (19 km/h) 0 mm0 mm 6 min 269.6 W/m²
14:42 21.3 °C 14.7 °C 66 % 15 km/h (19 km/h) 0 mm0 mm 6 min 291.4 W/m²
14:36 20.9 °C 14.3 °C 66 % 15 km/h (19 km/h) 0 mm0 mm 6 min 287.2 W/m²
14:30 20.7 °C 14.3 °C 67 % 15 km/h (19 km/h) 0 mm0 mm 6 min 285.4 W/m²
14:24 20.9 °C 14.1 °C 65 % 15 km/h (19 km/h) 0 mm0 mm 6 min 283.3 W/m²
14:18 20.7 °C 14.3 °C 67 % 15 km/h (18 km/h) 0 mm0 mm 6 min 282.8 W/m²
14:12 20.8 °C 14.7 °C 68 % 16 km/h (19 km/h) 0 mm0 mm 6 min 280.6 W/m²
14:06 20.5 °C 14.6 °C 69 % 15 km/h (18 km/h) 0 mm0 mm 6 min 280 W/m²
14:00 20.5 °C 14.6 °C 69 % 14 km/h (18 km/h) 0 mm0 mm 6 min 279 W/m²
13:54 20.6 °C 14.7 °C 69 % 15 km/h (19 km/h) 0 mm0 mm 6 min 278.6 W/m²
13:48 20.6 °C 14.7 °C 69 % 15 km/h (19 km/h) 0 mm0 mm 6 min 277.4 W/m²
13:42 20.5 °C 14.4 °C 68 % 15 km/h (19 km/h) 0 mm0 mm 6 min 277.2 W/m²
13:36 20.8 °C 14.4 °C 67 % 16 km/h (19 km/h) 0 mm0 mm 6 min 277 W/m²
13:30 20.5 °C 14.6 °C 69 % 16 km/h (18 km/h) 0 mm0 mm 6 min 269.9 W/m²
13:24 20.4 °C 14.5 °C 69 % 15 km/h (18 km/h) 0 mm0 mm 6 min 274.5 W/m²
13:18 20.1 °C 14.2 °C 69 % 15 km/h (19 km/h) 0 mm0 mm 6 min 271.6 W/m²
13:12 20.3 °C 14.6 °C 70 % 14 km/h (18 km/h) 0 mm0 mm 6 min 269 W/m²
13:06 20.3 °C 14.2 °C 68 % 14 km/h (17 km/h) 0 mm0 mm 6 min 266.6 W/m²
13:00 20.3 °C 14.4 °C 69 % 13 km/h (17 km/h) 0 mm0 mm 6 min 264.1 W/m²
12:54 20.3 °C 14.6 °C 70 % 13 km/h (16 km/h) 0 mm0 mm 6 min 261.4 W/m²
12:48 20.3 °C 14.2 °C 68 % 13 km/h (17 km/h) 0 mm0 mm 6 min 258.7 W/m²
12:42 20.2 °C 14.1 °C 68 % 12 km/h (17 km/h) 0 mm0 mm 6 min 255.7 W/m²
12:36 20.1 °C 14.7 °C 71 % 11 km/h (14 km/h) 0 mm0 mm 6 min 252.8 W/m²
12:30 19.8 °C 14.2 °C 70 % 11 km/h (14 km/h) 0 mm0 mm 6 min 249.7 W/m²
12:24 19.9 °C 14 °C 69 % 10 km/h (13 km/h) 0 mm0 mm 6 min 246.3 W/m²
12:18 19.8 °C 13.7 °C 68 % 9 km/h (12 km/h) 0 mm0 mm 6 min 242.5 W/m²
12:12 19.7 °C 13.4 °C 67 % 8 km/h (11 km/h) 0 mm0 mm 6 min 239.2 W/m²
12:06 19.8 °C 14.2 °C 70 % 8 km/h (11 km/h) 0 mm0 mm 6 min 235.2 W/m²
12:00 19.6 °C 14.2 °C 71 % 8 km/h (11 km/h) 0 mm0 mm 6 min 231.1 W/m²
11:54 19.6 °C 13.8 °C 69 % 8 km/h (11 km/h) 0 mm0 mm 6 min 226.8 W/m²
11:48 19.5 °C 14.1 °C 71 % 7 km/h (10 km/h) 0 mm0 mm 6 min 222.7 W/m²
11:42 19.2 °C 14 °C 72 % 7 km/h (9 km/h) 0 mm0 mm 6 min 218.2 W/m²
11:36 19.2 °C 13.8 °C 71 % 6 km/h (9 km/h) 0 mm0 mm 6 min 213.4 W/m²
11:30 19.2 °C 13.8 °C 71 % 6 km/h (9 km/h) 0 mm0 mm 6 min 208.7 W/m²
11:24 19.2 °C 14.2 °C 73 % 6 km/h (9 km/h) 0 mm0 mm 6 min 201.7 W/m²
11:18 19 °C 13.8 °C 72 % 6 km/h (8 km/h) 0 mm0 mm 6 min 199.2 W/m²
11:12 18.8 °C 13.4 °C 71 % 5 km/h (8 km/h) 0 mm0 mm 6 min 189 W/m²
11:06 18.8 °C 13.6 °C 72 % 5 km/h (8 km/h) 0 mm0 mm 6 min 188.8 W/m²
11:00 18.8 °C 13.2 °C 70 % 5 km/h (7 km/h) 0 mm0 mm 6 min 179.2 W/m²
10:54 18.6 °C 13 °C 70 % 4 km/h (7 km/h) 0 mm0 mm 6 min 174.1 W/m²
10:48 18.5 °C 13.4 °C 72 % 4 km/h (7 km/h) 0 mm0 mm 6 min 167.7 W/m²
10:42 18.3 °C 13.2 °C 72 % 4 km/h (6 km/h) 0 mm0 mm 6 min 158.8 W/m²
10:36 18.3 °C 14 °C 76 % 4 km/h (6 km/h) 0 mm0 mm 6 min 149.3 W/m²
10:30 18.1 °C 14.4 °C 79 % 4 km/h (6 km/h) 0 mm0 mm 6 min 119.1 W/m²
10:24 18.1 °C 14.4 °C 79 % 4 km/h (6 km/h) 0 mm0 mm 6 min 144.6 W/m²
10:18 18 °C 15.3 °C 84 % 4 km/h (6 km/h) 0 mm0 mm 6 min 134 W/m²
10:12 18 °C 15.1 °C 83 % 4 km/h (6 km/h) 0 mm0 mm 6 min 129.1 W/m²
10:06 18.1 °C 15.2 °C 83 % 4 km/h (7 km/h) 0 mm0 mm 6 min 123 W/m²
10:00 18.2 °C 14.9 °C 81 % 3 km/h (7 km/h) 0 mm0 mm 6 min 117.1 W/m²
09:54 18.2 °C 14.9 °C 81 % 3 km/h (5 km/h) 0 mm0 mm 6 min 109.6 W/m²
09:48 17.8 °C 14.7 °C 82 % 3 km/h (5 km/h) 0 mm0 mm 6 min 101.5 W/m²
09:42 17.7 °C 14.8 °C 83 % 3 km/h (5 km/h) 0 mm0 mm 6 min 113.5 W/m²
09:36 17.3 °C 14.8 °C 85 % 3 km/h (5 km/h) 0 mm0 mm 6 min 104.7 W/m²
09:30 16.8 °C 14.6 °C 87 % 3 km/h (5 km/h) 0 mm0 mm 6 min 93.7 W/m²
09:24 16.4 °C 14.6 °C 89 % 3 km/h (5 km/h) 0 mm0 mm 5 min 84.3 W/m²
09:18 16 °C 14.7 °C 92 % 3 km/h (4 km/h) 0 mm0 mm 6 min 96.2 W/m²
09:12 15.2 °C 14.2 °C 94 % 3 km/h (4 km/h) 0 mm0 mm 6 min 85.4 W/m²
09:06 14.6 °C 13.8 °C 95 % 4 km/h (7 km/h) 0 mm0 mm 6 min 74.8 W/m²
09:00 14 °C 13.5 °C 97 % 6 km/h (8 km/h) 0 mm0.2 mm 6 min 64.9 W/m²
08:54 13.3 °C 12.8 °C 97 % 7 km/h (8 km/h) 0 mm0 mm 6 min 57.3 W/m²
08:48 12.6 °C 12.1 °C 97 % 8 km/h (8 km/h) 0 mm0 mm 2 min 32.2 W/m²
08:42 12.3 °C 11.8 °C 97 % 8 km/h (8 km/h) 0 mm0 mm 2 min 26.9 W/m²
08:36 12.2 °C 11.6 °C 96 % 7 km/h (8 km/h) 0 mm0 mm 0 min 14.7 W/m²
08:30 12.4 °C 11.9 °C 97 % 8 km/h (9 km/h) 0 mm0 mm 0 min 14.8 W/m²
08:24 12.3 °C 11.8 °C 97 % 9 km/h (10 km/h) 0.2 mm0 mm 1 min 15.7 W/m²
08:18 12 °C 11.5 °C 97 % 9 km/h (10 km/h) 0 mm0 mm 6 min 19.5 W/m²
08:12 11.8 °C 11.3 °C 97 % 9 km/h (10 km/h) 0 mm0 mm 4 min 13.6 W/m²
08:06 11.6 °C 11.1 °C 97 % 9 km/h (10 km/h) 0 mm0 mm 0 min 7.8 W/m²
08:00 11.5 °C 11 °C 97 % 9 km/h (10 km/h) 0 mm0 mm 0 min 5.9 W/m²
07:54 11.3 °C 10.8 °C 97 % 9 km/h (10 km/h) 0 mm0 mm 0 min 4.5 W/m²
07:48 11.2 °C 10.6 °C 96 % 8 km/h (10 km/h) 0 mm0 mm 0 min 0.2 W/m²
07:42 11.2 °C 10.6 °C 96 % 7 km/h (8 km/h) 0 mm0 mm 0 min 0 W/m²
07:36 11.3 °C 10.7 °C 96 % 7 km/h (8 km/h) 0 mm0 mm 0 min 0 W/m²
07:30 11.3 °C 10.7 °C 96 % 7 km/h (8 km/h) 0 mm0 mm 0 min 0 W/m²
07:24 11.2 °C 10.6 °C 96 % 7 km/h (8 km/h) 0 mm0 mm 0 min 0 W/m²
07:18 11.2 °C 10.6 °C 96 % 8 km/h (9 km/h) 0 mm0 mm 0 min 0 W/m²
07:12 11.3 °C 10.7 °C 96 % 8 km/h (9 km/h) 0 mm0 mm 0 min 0 W/m²
07:06 11.3 °C 10.5 °C 95 % 8 km/h (9 km/h) 0 mm0 mm 0 min 0 W/m²
07:00 11.4 °C 10.6 °C 95 % 9 km/h (10 km/h) 0 mm0 mm 0 min 0 W/m²
06:54 11.6 °C 10.8 °C 95 % 10 km/h (10 km/h) 0 mm0 mm 0 min 0 W/m²
06:48 11.7 °C 11.1 °C 96 % 9 km/h (10 km/h) 0 mm0 mm 0 min 0 W/m²
06:42 11.8 °C 11 °C 95 % 9 km/h (10 km/h) 0 mm0 mm 0 min 0 W/m²
06:36 11.7 °C 10.9 °C 95 % 8 km/h (10 km/h) 0 mm0 mm 0 min 0 W/m²
06:30 11.6 °C 10.8 °C 95 % 7 km/h (9 km/h) 0 mm0 mm 0 min 0 W/m²
06:24 11.9 °C 11.1 °C 95 % 6 km/h (7 km/h) 0 mm0 mm 0 min 0 W/m²
06:18 12.2 °C 11.6 °C 96 % 6 km/h (8 km/h) 0 mm0 mm 0 min 0 W/m²
06:12 12.2 °C 11.6 °C 96 % 8 km/h (9 km/h) 0 mm0 mm 0 min 0 W/m²
06:06 11.9 °C 11.3 °C 96 % 9 km/h (11 km/h) 0 mm0 mm 0 min 0 W/m²
06:00 11.8 °C 11 °C 95 % 10 km/h (11 km/h) 0 mm0 mm 0 min 0 W/m²
05:54 11.9 °C 11.1 °C 95 % 9 km/h (10 km/h) 0 mm0 mm 0 min 0 W/m²
05:48 11.9 °C 11.1 °C 95 % 6 km/h (9 km/h) 0 mm0 mm 0 min 0 W/m²
05:42 12 °C 11.2 °C 95 % 7 km/h (10 km/h) 0 mm0 mm 0 min 0 W/m²
05:36 12 °C 11.2 °C 95 % 8 km/h (10 km/h) 0 mm0 mm 0 min 0 W/m²
05:30 12.1 °C 11.3 °C 95 % 7 km/h (10 km/h) 0 mm0 mm 0 min 0 W/m²
05:24 12.1 °C 11.3 °C 95 % 5 km/h (7 km/h) 0 mm0 mm 0 min 0 W/m²
05:18 12.2 °C 11.6 °C 96 % 4 km/h (6 km/h) 0 mm0 mm 0 min 0 W/m²
05:12 12.1 °C 11.5 °C 96 % 4 km/h (6 km/h) 0 mm0 mm 0 min 0 W/m²
05:06 11.9 °C 11.3 °C 96 % 3 km/h (5 km/h) 0 mm0 mm 0 min 0 W/m²
05:00 11.7 °C 10.9 °C 95 % 3 km/h (4 km/h) 0 mm0 mm 0 min 0 W/m²
04:54 11.6 °C 10.8 °C 95 % 4 km/h (4 km/h) 0 mm0 mm 0 min 0 W/m²
04:48 11.5 °C 10.6 °C 94 % 4 km/h (5 km/h) 0 mm0 mm 0 min 0 W/m²
04:42 11.4 °C 10.3 °C 93 % 4 km/h (5 km/h) 0 mm0 mm 0 min 0 W/m²
04:36 11.5 °C 10.4 °C 93 % 4 km/h (5 km/h) 0 mm0 mm 0 min 0 W/m²
04:30 11.8 °C 10.7 °C 93 % 3 km/h (5 km/h) 0 mm0 mm 0 min 0 W/m²
04:24 12 °C 10.9 °C 93 % 3 km/h (4 km/h) 0 mm0 mm 0 min 0 W/m²
04:18 12.2 °C 11.3 °C 94 % 3 km/h (4 km/h) 0 mm0 mm 0 min 0 W/m²
04:12 12.2 °C 11.3 °C 94 % 3 km/h (4 km/h) 0 mm0 mm 0 min 0 W/m²
04:06 12 °C 11.1 °C 94 % 3 km/h (4 km/h) 0 mm0 mm 0 min 0 W/m²
04:00 12.1 °C 11.3 °C 95 % 3 km/h (4 km/h) 0 mm0 mm 0 min 0 W/m²
03:54 11.9 °C 11.1 °C 95 % 4 km/h (5 km/h) 0 mm0 mm 0 min 0 W/m²
03:48 11.7 °C 10.9 °C 95 % 5 km/h (6 km/h) 0 mm0 mm 0 min 0 W/m²
03:42 11.6 °C 10.8 °C 95 % 5 km/h (6 km/h) 0 mm0 mm 0 min 0 W/m²
03:36 11.6 °C 10.7 °C 94 % 4 km/h (5 km/h) 0 mm0 mm 0 min 0 W/m²
03:30 11.7 °C 10.8 °C 94 % 3 km/h (5 km/h) 0 mm0 mm 0 min 0 W/m²
03:24 11.8 °C 10.9 °C 94 % 2 km/h (3 km/h) 0 mm0 mm 0 min 0 W/m²
03:18 11.9 °C 11.1 °C 95 % 0 km/h (2 km/h) 0 mm0 mm 0 min 0 W/m²
03:12 11.9 °C 11.1 °C 95 % 0 km/h (3 km/h) 0 mm0 mm 0 min 0 W/m²
03:06 12 °C 11.2 °C 95 % 2 km/h (4 km/h) 0 mm0 mm 0 min 0 W/m²
03:00 11.9 °C 11.1 °C 95 % 3 km/h (4 km/h) 0 mm0 mm 0 min 0 W/m²
02:54 12 °C 11.2 °C 95 % 3 km/h (5 km/h) 0 mm0 mm 0 min 0 W/m²
02:48 12.1 °C 11.3 °C 95 % 4 km/h (5 km/h) 0 mm0 mm 0 min 0 W/m²
02:42 12 °C 11.2 °C 95 % 5 km/h (6 km/h) 0 mm0 mm 0 min 0 W/m²
02:36 12 °C 11.2 °C 95 % 5 km/h (6 km/h) 0 mm0 mm 0 min 0 W/m²
02:30 12.1 °C 11.3 °C 95 % 6 km/h (7 km/h) 0 mm0 mm 0 min 0 W/m²
02:24 12.1 °C 11.3 °C 95 % 6 km/h (7 km/h) 0 mm0 mm 0 min 0 W/m²
02:18 12.3 °C 11.5 °C 95 % 5 km/h (7 km/h) 0 mm0 mm 0 min 0 W/m²
02:12 12.3 °C 11.5 °C 95 % 5 km/h (6 km/h) 0 mm0 mm 0 min 0 W/m²
02:06 12.3 °C 11.5 °C 95 % 6 km/h (6 km/h) 0 mm0 mm 0 min 0 W/m²
02:00 12.4 °C 11.6 °C 95 % 5 km/h (6 km/h) 0 mm0 mm 0 min 0 W/m²
01:54 12.4 °C 11.5 °C 94 % 5 km/h (6 km/h) 0 mm0 mm 0 min 0 W/m²
01:48 12.5 °C 11.6 °C 94 % 5 km/h (6 km/h) 0 mm0 mm 0 min 0 W/m²
01:42 12.5 °C 11.6 °C 94 % 5 km/h (5 km/h) 0 mm0 mm 0 min 0 W/m²
01:36 12.7 °C 11.8 °C 94 % 5 km/h (5 km/h) 0 mm0 mm 0 min 0 W/m²
01:30 12.7 °C 11.8 °C 94 % 5 km/h (6 km/h) 0 mm0 mm 0 min 0 W/m²
01:24 12.8 °C 11.9 °C 94 % 5 km/h (6 km/h) 0 mm0 mm 0 min 0 W/m²
01:18 13 °C 12.1 °C 94 % 6 km/h (8 km/h) 0 mm0 mm 0 min 0 W/m²
01:12 12.8 °C 11.9 °C 94 % 7 km/h (8 km/h) 0 mm0 mm 0 min 0 W/m²
01:06 12.9 °C 12 °C 94 % 7 km/h (8 km/h) 0 mm0 mm 0 min 0 W/m²
01:00 13 °C 11.9 °C 93 % 7 km/h (8 km/h) 0 mm0 mm 0 min 0 W/m²
00:54 13 °C 11.9 °C 93 % 7 km/h (8 km/h) 0 mm0 mm 0 min 0 W/m²
00:48 13.2 °C 12.1 °C 93 % 7 km/h (8 km/h) 0 mm0 mm 0 min 0 W/m²
00:42 13.4 °C 12.3 °C 93 % 6 km/h (8 km/h) 0 mm0 mm 0 min 0 W/m²
00:36 13.4 °C 12.3 °C 93 % 6 km/h (7 km/h) 0 mm0 mm 0 min 0 W/m²
00:30 13.5 °C 12.2 °C 92 % 6 km/h (7 km/h) 0 mm0 mm 0 min 0 W/m²
00:24 13.6 °C 12.2 °C 91 % 6 km/h (7 km/h) 0 mm0 mm 0 min 0 W/m²
00:18 13.8 °C 12.2 °C 90 % 6 km/h (7 km/h) 0 mm0 mm 0 min 0 W/m²
00:12 14.1 °C 12.3 °C 89 % 6 km/h (7 km/h) 0 mm0 mm 0 min 0 W/m²
00:06 14.4 °C 12.6 °C 89 % 6 km/h (6 km/h) 0 mm0 mm 0 min 0 W/m²
00:00 14.5 °C 12.9 °C 90 % 5 km/h (6 km/h) 0 mm0 mm 0 min 0 W/m²

Données via Météo-France

Relevés météo à Plovan

Cette page rassemble les observations de la station de Plovan : température, humidité, vent, précipitations et pression atmosphérique. Les graphiques facilitent le suivi de la journée, tandis que le tableau donne accès aux mesures horaires et infra-horaires disponibles.

Pour replacer ces mesures dans leur contexte, consultez la climatologie de Plovan. Retrouvez aussi la carte des observations météo en temps réel.